Time;durP1;ratioP1;P1;durP2;ratioP2;P2;SDS_P1;SDS_P2;PMS_P1;PMS_P2;Temp;Humidity;BMP_temperature;BMP_pressure;BME280_temperature;BME280_humidity;BME280_pressure;Samples;Min_cycle;Max_cycle;Signal;HPM_P1;HPM_P2
2021/04/08 00:02:09;;;;;;;7.38;2.60;;;4.10;96.40;;;;;;5054472;28;20028;-70
2021/04/08 00:04:36;;;;;;;5.70;2.15;;;4.20;96.60;;;;;;5055997;28;20029;-70
2021/04/08 00:07:02;;;;;;;3.67;1.95;;;4.20;96.00;;;;;;5055724;28;20405;-71
2021/04/08 00:09:27;;;;;;;4.50;2.22;;;4.20;96.10;;;;;;5054242;28;20128;-70
2021/04/08 00:11:57;;;;;;;6.65;1.80;;;4.20;95.70;;;;;;5055682;28;20036;-71
2021/04/08 00:14:24;;;;;;;13.45;3.47;;;4.20;96.00;;;;;;5054254;28;20367;-70
2021/04/08 00:16:50;;;;;;;7.07;2.17;;;4.20;95.80;;;;;;5037860;28;20545;-70
2021/04/08 00:19:17;;;;;;;5.57;2.33;;;4.20;95.90;;;;;;5054278;28;20124;-71
2021/04/08 00:21:43;;;;;;;3.13;1.90;;;4.10;95.30;;;;;;5055868;28;20129;-71
2021/04/08 00:24:09;;;;;;;4.70;2.20;;;4.10;95.20;;;;;;5055906;28;20079;-71
2021/04/08 00:26:35;;;;;;;7.15;2.50;;;4.10;95.50;;;;;;5054297;28;20029;-72
2021/04/08 00:29:01;;;;;;;4.97;2.20;;;4.00;95.70;;;;;;5055685;28;20076;-69
2021/04/08 00:31:26;;;;;;;4.30;2.47;;;4.00;95.70;;;;;;5055520;28;20060;-70
2021/04/08 00:33:52;;;;;;;5.95;2.30;;;4.00;95.70;;;;;;5054085;28;20036;-71
2021/04/08 00:36:18;;;;;;;9.73;2.70;;;4.00;95.30;;;;;;5055014;28;20063;-71
2021/04/08 00:38:44;;;;;;;4.32;1.92;;;4.00;95.60;;;;;;5055528;28;20363;-71
2021/04/08 00:41:10;;;;;;;5.63;2.10;;;4.00;95.80;;;;;;5055503;28;20064;-71
2021/04/08 00:43:35;;;;;;;4.03;2.20;;;4.00;95.30;;;;;;5054212;28;20411;-70
2021/04/08 00:46:01;;;;;;;5.18;2.10;;;4.00;95.50;;;;;;5055203;28;20025;-71
2021/04/08 00:48:27;;;;;;;7.05;2.25;;;4.00;95.30;;;;;;5054971;28;20045;-71
2021/04/08 00:50:54;;;;;;;8.23;2.85;;;4.00;95.10;;;;;;5055068;28;20037;-71
2021/04/08 00:53:24;;;;;;;12.07;2.50;;;4.00;95.20;;;;;;5055111;28;20401;-70
2021/04/08 00:55:53;;;;;;;5.83;2.53;;;4.00;94.50;;;;;;5055320;28;20040;-71
2021/04/08 00:58:19;;;;;;;9.88;2.55;;;3.90;94.90;;;;;;5053801;28;20294;-70
2021/04/08 01:00:46;;;;;;;8.38;2.20;;;3.90;95.10;;;;;;5054722;28;20032;-70
2021/04/08 01:03:14;;;;;;;4.65;2.50;;;3.90;95.80;;;;;;5053505;28;20120;-70
2021/04/08 01:05:40;;;;;;;8.00;2.63;;;3.90;95.90;;;;;;5054024;28;20049;-70
2021/04/08 01:08:06;;;;;;;12.13;2.78;;;3.90;96.10;;;;;;5054515;28;20049;-73
2021/04/08 01:10:33;;;;;;;6.68;2.92;;;3.90;95.50;;;;;;5054844;28;20088;-71
2021/04/08 01:13:07;;;;;;;7.25;2.90;;;3.90;95.80;;;;;;5054570;28;20033;-70
2021/04/08 01:15:34;;;;;;;6.78;2.47;;;4.00;96.10;;;;;;5053553;28;20381;-71
2021/04/08 01:18:32;;;;;;;10.00;2.30;;;3.90;96.00;;;;;;5054839;28;20083;-70
2021/04/08 01:21:35;;;;;;;5.32;2.53;;;3.90;95.60;;;;;;5054564;28;20505;-70
2021/04/08 01:24:54;;;;;;;10.38;2.47;;;3.90;95.60;;;;;;5053721;28;20040;-70
2021/04/08 01:27:55;;;;;;;8.90;2.47;;;3.90;95.60;;;;;;5053488;28;20036;-71
2021/04/08 01:30:49;;;;;;;8.57;2.90;;;3.90;96.00;;;;;;5054548;28;20493;-71
2021/04/08 01:33:48;;;;;;;7.82;2.42;;;3.80;95.80;;;;;;5053447;28;20021;-72
2021/04/08 01:36:22;;;;;;;10.77;2.92;;;3.90;96.20;;;;;;5053412;28;20032;-71
2021/04/08 01:38:58;;;;;;;7.88;2.70;;;3.80;96.30;;;;;;5036558;28;20032;-71
2021/04/08 01:41:26;;;;;;;8.23;2.75;;;3.80;96.40;;;;;;5053198;28;20025;-70
2021/04/08 01:43:56;;;;;;;8.77;2.67;;;3.80;96.50;;;;;;5052931;28;20048;-70
2021/04/08 01:46:26;;;;;;;6.18;2.50;;;3.70;96.70;;;;;;5053050;28;20032;-70
2021/04/08 01:48:55;;;;;;;10.82;2.88;;;3.70;96.80;;;;;;5052933;28;20032;-70
2021/04/08 01:51:23;;;;;;;6.97;2.40;;;3.70;96.90;;;;;;5052954;28;20079;-71
2021/04/08 01:53:57;;;;;;;7.43;3.40;;;3.70;97.10;;;;;;5052988;28;20057;-71
2021/04/08 01:56:28;;;;;;;9.45;2.78;;;3.60;97.50;;;;;;5052596;28;20100;-71
2021/04/08 01:58:56;;;;;;;7.95;3.08;;;3.40;98.00;;;;;;5053821;28;20527;-71
2021/04/08 02:01:23;;;;;;;10.65;3.42;;;3.30;98.20;;;;;;5052783;28;20065;-71
2021/04/08 02:03:50;;;;;;;9.30;3.38;;;3.40;98.30;;;;;;5053671;28;20041;-70
2021/04/08 02:06:17;;;;;;;10.80;3.10;;;3.20;98.30;;;;;;5053893;28;20021;-71
2021/04/08 02:08:49;;;;;;;6.65;2.60;;;3.20;98.40;;;;;;5035447;28;20132;-71
2021/04/08 02:11:15;;;;;;;5.75;3.03;;;3.30;98.40;;;;;;5052058;28;20025;-71
2021/04/08 02:13:46;;;;;;;8.50;3.13;;;3.30;98.60;;;;;;5053490;28;20083;-71
2021/04/08 02:16:14;;;;;;;8.98;3.17;;;3.30;98.60;;;;;;5052238;28;20025;-71
2021/04/08 02:18:42;;;;;;;7.55;3.40;;;3.20;98.80;;;;;;5052269;28;20041;-71
2021/04/08 02:21:09;;;;;;;9.25;3.08;;;3.10;99.20;;;;;;5053692;28;20027;-71
2021/04/08 02:23:40;;;;;;;8.18;3.17;;;3.00;99.80;;;;;;5052149;28;20064;-71
2021/04/08 02:26:14;;;;;;;7.03;2.90;;;2.90;99.90;;;;;;5052473;28;20029;-71
2021/04/08 02:28:42;;;;;;;6.63;2.90;;;2.90;99.90;;;;;;5052072;28;20041;-71
2021/04/08 02:31:09;;;;;;;9.48;3.25;;;2.90;99.90;;;;;;5052279;28;20036;-71
2021/04/08 02:33:36;;;;;;;7.60;3.28;;;2.80;99.90;;;;;;5052973;28;20029;-71
2021/04/08 02:36:03;;;;;;;8.95;3.60;;;2.80;99.90;;;;;;5052200;28;20064;-71
2021/04/08 02:38:32;;;;;;;8.50;3.40;;;2.80;99.90;;;;;;5053131;28;20374;-71
2021/04/08 02:40:59;;;;;;;7.28;3.20;;;2.80;99.90;;;;;;5052082;28;20115;-71
2021/04/08 02:43:25;;;;;;;10.13;3.88;;;2.80;99.90;;;;;;5051849;28;20470;-71
2021/04/08 02:45:51;;;;;;;9.43;4.32;;;2.80;99.90;;;;;;5053123;28;20198;-71
2021/04/08 02:48:21;;;;;;;5.50;2.83;;;2.80;99.90;;;;;;5051493;28;20041;-71
2021/04/08 02:50:54;;;;;;;11.80;2.78;;;2.70;99.90;;;;;;5053019;28;20120;-70
2021/04/08 02:53:44;;;;;;;6.10;2.67;;;2.60;99.90;;;;;;5053037;28;20032;-70
2021/04/08 02:56:24;;;;;;;9.75;3.78;;;2.60;99.90;;;;;;5052972;28;20531;-70
2021/04/08 02:58:58;;;;;;;9.00;3.33;;;2.60;99.90;;;;;;5052870;28;20036;-70
2021/04/08 03:01:28;;;;;;;10.35;3.58;;;2.60;99.90;;;;;;5052832;28;20481;-71
2021/04/08 03:03:58;;;;;;;8.82;3.40;;;2.60;99.90;;;;;;5051634;28;20037;-71
2021/04/08 03:06:26;;;;;;;10.13;2.90;;;2.60;99.90;;;;;;5051648;28;20087;-71
2021/04/08 03:08:55;;;;;;;8.07;3.00;;;2.60;99.90;;;;;;5051228;28;20041;-70
2021/04/08 03:11:32;;;;;;;5.97;2.35;;;2.70;99.90;;;;;;5052705;28;20064;-71
2021/04/08 03:14:01;;;;;;;9.77;3.78;;;2.70;99.90;;;;;;5051408;28;20124;-71
2021/04/08 03:16:37;;;;;;;10.63;3.30;;;2.60;99.90;;;;;;5035188;28;20029;-71
2021/04/08 03:19:06;;;;;;;9.00;3.38;;;2.60;99.90;;;;;;5051514;28;20032;-71
2021/04/08 03:21:33;;;;;;;8.88;3.30;;;2.60;99.90;;;;;;5052121;28;20119;-71
2021/04/08 03:24:01;;;;;;;7.93;3.83;;;2.60;99.90;;;;;;5050565;28;20111;-71
2021/04/08 03:26:28;;;;;;;9.73;4.07;;;2.60;99.90;;;;;;5034413;28;20477;-70
2021/04/08 03:28:55;;;;;;;5.80;3.30;;;2.50;99.90;;;;;;5051172;28;20120;-71
2021/04/08 03:31:22;;;;;;;12.25;3.80;;;2.50;99.90;;;;;;5051284;28;20043;-71
2021/04/08 03:33:51;;;;;;;7.72;3.20;;;2.50;99.90;;;;;;5034583;28;20033;-71
2021/04/08 03:36:18;;;;;;;6.47;3.40;;;2.50;99.90;;;;;;5050950;28;20371;-70
2021/04/08 03:38:46;;;;;;;7.78;3.55;;;2.40;99.90;;;;;;5051871;28;20460;-71
2021/04/08 03:41:13;;;;;;;8.85;3.97;;;2.40;99.90;;;;;;5052465;28;20493;-71
2021/04/08 03:43:41;;;;;;;8.48;3.58;;;2.40;99.90;;;;;;5051047;28;20048;-71
2021/04/08 03:46:08;;;;;;;11.80;3.35;;;2.40;99.90;;;;;;5050802;28;20497;-70
2021/04/08 03:48:36;;;;;;;7.32;4.07;;;2.50;99.90;;;;;;5051981;28;20470;-70
2021/04/08 03:51:04;;;;;;;11.85;3.50;;;2.40;99.90;;;;;;5050862;28;20029;-70
2021/04/08 03:53:32;;;;;;;11.10;4.45;;;2.40;99.90;;;;;;5040166;28;20032;-70
2021/04/08 03:55:59;;;;;;;14.15;4.60;;;2.40;99.90;;;;;;5047472;28;20385;-70
2021/04/08 03:58:26;;;;;;;8.73;4.22;;;2.40;99.90;;;;;;5036783;28;20033;-70
2021/04/08 04:00:53;;;;;;;11.02;3.67;;;2.40;99.90;;;;;;5069263;28;20024;-77
2021/04/08 04:03:20;;;;;;;5.40;3.38;;;2.40;99.90;;;;;;5072355;28;20040;-75
2021/04/08 04:05:46;;;;;;;7.00;4.30;;;2.50;99.90;;;;;;5070958;28;20060;-76
2021/04/08 04:08:13;;;;;;;8.70;3.72;;;2.40;99.90;;;;;;5070447;28;20178;-78
2021/04/08 04:10:40;;;;;;;9.90;3.85;;;2.30;99.90;;;;;;5070813;28;20032;-75
2021/04/08 04:13:10;;;;;;;10.20;3.80;;;2.30;99.90;;;;;;5072184;28;20029;-73
2021/04/08 04:15:36;;;;;;;9.80;3.95;;;2.30;99.90;;;;;;5070831;28;20029;-79
2021/04/08 04:18:08;;;;;;;8.35;3.75;;;2.30;99.90;;;;;;5072417;28;20033;-78
2021/04/08 04:20:37;;;;;;;9.98;4.20;;;2.30;99.90;;;;;;5071004;28;20078;-80
2021/04/08 04:23:04;;;;;;;7.28;3.75;;;2.30;99.90;;;;;;5072364;28;20040;-77
2021/04/08 04:25:31;;;;;;;9.20;3.80;;;2.30;99.90;;;;;;5072067;28;20078;-79
2021/04/08 04:27:58;;;;;;;9.45;4.40;;;2.30;99.90;;;;;;5072159;28;20032;-77
2021/04/08 04:30:24;;;;;;;10.90;4.18;;;2.30;99.90;;;;;;5070646;28;20043;-77
2021/04/08 04:32:55;;;;;;;9.93;4.10;;;2.20;99.90;;;;;;5070692;28;20036;-78
2021/04/08 04:35:23;;;;;;;10.57;5.22;;;2.20;99.90;;;;;;5090643;28;20035;-79
2021/04/08 04:37:50;;;;;;;16.83;4.63;;;2.30;99.90;;;;;;5075215;28;20619;-79
2021/04/08 04:40:16;;;;;;;12.40;4.70;;;2.30;99.90;;;;;;5075667;28;20040;-76
2021/04/08 04:42:43;;;;;;;7.10;4.15;;;2.20;99.90;;;;;;5075517;28;20392;-75
2021/04/08 04:45:11;;;;;;;8.07;4.53;;;2.20;99.90;;;;;;5075635;28;20032;-76
2021/04/08 04:47:44;;;;;;;12.57;4.78;;;2.20;99.90;;;;;;5075597;28;20097;-79
2021/04/08 04:50:12;;;;;;;13.85;4.68;;;2.20;99.90;;;;;;5074225;28;20068;-71
2021/04/08 04:52:39;;;;;;;15.60;4.78;;;2.20;99.90;;;;;;5075437;28;20036;-78
2021/04/08 04:55:06;;;;;;;9.55;4.18;;;2.20;99.90;;;;;;5074178;28;20035;-77
2021/04/08 04:57:32;;;;;;;11.82;5.05;;;2.10;99.90;;;;;;5075220;28;20058;-79
2021/04/08 04:59:58;;;;;;;10.98;4.78;;;2.10;99.90;;;;;;5074022;28;20028;-77
2021/04/08 05:02:26;;;;;;;12.25;5.25;;;2.10;99.90;;;;;;5075341;28;20032;-77
2021/04/08 05:04:52;;;;;;;10.88;4.38;;;2.10;99.90;;;;;;5073857;28;20037;-77
2021/04/08 05:07:18;;;;;;;12.48;5.03;;;2.10;99.90;;;;;;5056912;28;20036;-77
2021/04/08 05:09:44;;;;;;;12.32;4.30;;;2.10;99.90;;;;;;5073610;28;20044;-76
2021/04/08 05:12:10;;;;;;;9.93;4.32;;;2.10;99.90;;;;;;5074872;28;20063;-76
2021/04/08 05:14:35;;;;;;;18.05;5.05;;;2.00;99.90;;;;;;5074731;28;20028;-77
2021/04/08 05:17:01;;;;;;;8.98;4.65;;;2.10;99.90;;;;;;5073709;28;20031;-71
2021/04/08 05:19:27;;;;;;;9.23;4.65;;;2.00;99.90;;;;;;5074431;28;20033;-74
2021/04/08 05:21:53;;;;;;;8.00;3.70;;;2.00;99.90;;;;;;5074800;28;20039;-75
2021/04/08 05:24:19;;;;;;;13.95;4.13;;;2.00;99.90;;;;;;5075003;28;20032;-75
2021/04/08 05:26:46;;;;;;;13.18;4.53;;;2.10;99.90;;;;;;5074551;28;20033;-78
2021/04/08 05:29:11;;;;;;;16.80;4.65;;;2.10;99.90;;;;;;5063890;28;20045;-77
2021/04/08 05:31:37;;;;;;;12.10;4.13;;;2.10;99.90;;;;;;5054623;28;20029;-77
2021/04/08 05:34:03;;;;;;;12.80;4.55;;;2.10;99.90;;;;;;5054838;28;20045;-78
2021/04/08 05:36:35;;;;;;;17.30;4.93;;;2.20;99.90;;;;;;5054600;28;20034;-78
2021/04/08 05:39:01;;;;;;;15.98;4.07;;;2.20;99.90;;;;;;5054787;28;20049;-76
2021/04/08 05:41:27;;;;;;;19.73;5.60;;;2.20;99.90;;;;;;5054494;28;20052;-75
2021/04/08 05:43:52;;;;;;;13.07;4.43;;;2.20;99.90;;;;;;5054139;28;20033;-76
2021/04/08 05:46:18;;;;;;;13.32;4.75;;;2.20;99.90;;;;;;5053469;28;20065;-76
2021/04/08 05:48:44;;;;;;;8.43;4.53;;;2.30;99.90;;;;;;5053962;28;20029;-78
2021/04/08 05:51:10;;;;;;;15.38;4.13;;;2.40;99.90;;;;;;5053889;28;20098;-76
2021/04/08 05:53:39;;;;;;;16.63;4.80;;;2.30;99.90;;;;;;5054270;28;20032;-74
2021/04/08 05:56:05;;;;;;;16.23;4.20;;;2.40;99.90;;;;;;5056630;28;20021;-76
2021/04/08 05:58:31;;;;;;;20.42;4.82;;;2.40;99.90;;;;;;5053851;28;20029;-74
2021/04/08 06:00:57;;;;;;;12.75;4.45;;;2.40;99.90;;;;;;5053951;28;20059;-74
2021/04/08 06:03:23;;;;;;;20.13;4.80;;;2.40;99.90;;;;;;5054066;28;20141;-75
2021/04/08 06:05:50;;;;;;;13.25;4.63;;;2.40;99.90;;;;;;5053944;28;20044;-74
2021/04/08 06:08:15;;;;;;;10.23;4.07;;;2.40;99.90;;;;;;5052382;28;20050;-75
2021/04/08 06:10:41;;;;;;;12.90;5.07;;;2.50;99.90;;;;;;5053847;28;20037;-74
2021/04/08 06:13:07;;;;;;;12.43;5.18;;;2.60;99.90;;;;;;5053743;28;20028;-75
2021/04/08 06:15:34;;;;;;;11.38;4.55;;;2.60;99.90;;;;;;5053821;28;20032;-75
2021/04/08 06:17:59;;;;;;;17.60;5.45;;;2.50;99.90;;;;;;5053514;28;20466;-75
2021/04/08 06:20:25;;;;;;;11.20;4.63;;;2.50;99.90;;;;;;5053825;28;20036;-73
2021/04/08 06:22:52;;;;;;;12.45;4.80;;;2.60;99.90;;;;;;5053530;28;20032;-75
2021/04/08 06:25:18;;;;;;;12.02;4.60;;;2.60;99.90;;;;;;5053152;28;20108;-75
2021/04/08 06:27:44;;;;;;;10.68;5.82;;;2.70;99.90;;;;;;5053100;28;20040;-75
2021/04/08 06:30:11;;;;;;;16.25;5.95;;;2.70;99.90;;;;;;5051667;28;20037;-74
2021/04/08 06:32:38;;;;;;;13.85;5.60;;;2.80;99.90;;;;;;5051535;28;20041;-75
2021/04/08 06:35:06;;;;;;;12.73;5.30;;;2.90;99.90;;;;;;5051837;28;20048;-74
2021/04/08 06:37:32;;;;;;;11.57;6.32;;;2.90;99.90;;;;;;5051658;28;20385;-75
2021/04/08 06:39:58;;;;;;;15.00;7.72;;;3.10;99.90;;;;;;5052786;28;20033;-76
2021/04/08 06:42:24;;;;;;;22.90;6.60;;;3.30;99.90;;;;;;5051990;28;20033;-75
2021/04/08 06:44:56;;;;;;;12.52;4.80;;;3.50;99.90;;;;;;5051654;28;20036;-75
2021/04/08 06:47:35;;;;;;;12.93;4.65;;;3.60;99.90;;;;;;5053202;28;20109;-76
2021/04/08 06:50:07;;;;;;;10.25;4.65;;;3.70;99.90;;;;;;5052458;28;20389;-74
2021/04/08 06:52:33;;;;;;;10.50;4.80;;;3.80;99.90;;;;;;5052636;28;20029;-76
2021/04/08 06:54:59;;;;;;;15.18;5.20;;;3.80;99.90;;;;;;5052908;28;20112;-75
2021/04/08 06:57:25;;;;;;;10.93;5.20;;;3.90;99.90;;;;;;5052678;28;20040;-74
2021/04/08 06:59:52;;;;;;;13.20;5.38;;;3.90;99.90;;;;;;5051141;28;20501;-75
2021/04/08 07:02:21;;;;;;;10.52;5.25;;;3.90;99.90;;;;;;5051398;28;20036;-75
2021/04/08 07:04:47;;;;;;;9.45;5.05;;;4.00;99.90;;;;;;5052262;28;20068;-74
2021/04/08 07:07:14;;;;;;;11.95;4.57;;;4.20;99.90;;;;;;5051500;28;20024;-75
2021/04/08 07:09:41;;;;;;;13.10;4.32;;;4.30;99.90;;;;;;5050868;28;20623;-74
2021/04/08 07:12:09;;;;;;;13.35;4.95;;;4.30;99.90;;;;;;5052526;28;20059;-75
2021/04/08 07:14:39;;;;;;;9.80;4.60;;;4.50;99.90;;;;;;5051447;28;20036;-75
2021/04/08 07:17:12;;;;;;;9.95;4.68;;;4.50;99.70;;;;;;5034531;28;20052;-74
2021/04/08 07:19:39;;;;;;;13.05;4.38;;;4.60;99.90;;;;;;5052464;28;20511;-74
2021/04/08 07:22:05;;;;;;;10.70;4.85;;;4.60;99.60;;;;;;5052520;28;20063;-76
2021/04/08 07:24:50;;;;;;;9.35;4.35;;;4.70;99.90;;;;;;5052533;28;20115;-74
2021/04/08 07:27:22;;;;;;;14.55;4.25;;;4.80;99.20;;;;;;5051302;28;20404;-75
2021/04/08 07:29:59;;;;;;;13.18;5.03;;;4.80;99.30;;;;;;5051048;28;20032;-75
2021/04/08 07:32:35;;;;;;;10.70;5.43;;;4.80;99.60;;;;;;5051152;28;20036;-75
2021/04/08 07:35:00;;;;;;;12.43;4.70;;;5.00;99.10;;;;;;5050841;28;20074;-76
2021/04/08 07:37:31;;;;;;;8.18;4.55;;;4.90;99.10;;;;;;5050797;28;20584;-76
2021/04/08 07:40:15;;;;;;;11.57;3.50;;;5.00;99.70;;;;;;5052353;28;20029;-76
2021/04/08 07:42:46;;;;;;;11.98;3.25;;;5.40;99.00;;;;;;5052118;28;20127;-76
2021/04/08 07:45:28;;;;;;;9.45;3.63;;;5.60;97.70;;;;;;5052520;28;20491;-76
2021/04/08 07:48:06;;;;;;;9.38;2.80;;;5.60;97.90;;;;;;5052119;28;20051;-75
2021/04/08 07:50:36;;;;;;;11.48;3.17;;;5.70;97.70;;;;;;5051064;28;20040;-75
2021/04/08 07:53:03;;;;;;;13.27;3.78;;;5.80;97.50;;;;;;5052038;28;20389;-75
2021/04/08 07:55:29;;;;;;;11.77;3.33;;;5.80;97.40;;;;;;5050751;28;20055;-75
2021/04/08 07:58:13;;;;;;;11.10;4.00;;;5.80;98.10;;;;;;5051907;28;20080;-76
2021/04/08 08:00:53;;;;;;;16.67;6.30;;;5.80;97.40;;;;;;5034517;28;20032;-75
2021/04/08 08:03:30;;;;;;;10.60;3.40;;;5.90;97.80;;;;;;5052126;28;20490;-75
2021/04/08 08:05:59;;;;;;;9.50;3.95;;;5.80;97.30;;;;;;5051966;28;20037;-76
2021/04/08 08:08:39;;;;;;;8.80;3.33;;;5.70;98.00;;;;;;5051602;28;20470;-76
2021/04/08 08:11:13;;;;;;;14.55;4.15;;;6.00;97.90;;;;;;5054568;28;20025;-75
2021/04/08 08:13:47;;;;;;;13.32;3.70;;;5.40;97.70;;;;;;5038093;28;20446;-76
2021/04/08 08:16:19;;;;;;;9.30;3.88;;;5.50;98.00;;;;;;5054170;28;20036;-74
2021/04/08 08:18:47;;;;;;;;;;;5.40;98.00;;;;;;5055421;28;20055;-76
2021/04/08 08:21:28;;;;;;;8.35;2.75;;;5.70;97.60;;;;;;5055838;28;19913;-76
2021/04/08 08:23:57;;;;;;;9.93;3.47;;;5.60;97.80;;;;;;5055711;28;20033;-75
2021/04/08 08:26:26;;;;;;;15.27;4.10;;;5.50;98.00;;;;;;5054301;28;20032;-76
2021/04/08 08:28:55;;;;;;;8.98;3.63;;;5.50;98.40;;;;;;5055471;28;20041;-77
2021/04/08 08:31:47;;;;;;;14.52;3.30;;;5.70;98.00;;;;;;5055809;28;20497;-76
2021/04/08 08:34:16;;;;;;;10.75;3.42;;;5.70;98.20;;;;;;5055308;28;20612;-76
2021/04/08 08:36:45;;;;;;;11.65;3.33;;;5.50;98.50;;;;;;5055677;28;20048;-74
2021/04/08 08:39:17;;;;;;;10.18;4.13;;;5.40;98.90;;;;;;5055538;28;20047;-75
2021/04/08 08:41:44;;;;;;;10.23;3.55;;;5.40;98.90;;;;;;5055563;28;20091;-76
2021/04/08 08:44:13;;;;;;;9.10;4.20;;;5.40;99.00;;;;;;5055196;28;20183;-76
2021/04/08 08:46:51;;;;;;;11.20;3.90;;;5.30;98.60;;;;;;5054527;28;20553;-76
2021/04/08 08:49:29;;;;;;;10.00;3.72;;;5.50;98.10;;;;;;5054013;28;20493;-77
2021/04/08 08:52:01;;;;;;;11.55;5.30;;;5.50;98.10;;;;;;5055211;28;20029;-77
2021/04/08 08:54:31;;;;;;;16.65;3.72;;;5.40;97.80;;;;;;5053979;28;20099;-77
2021/04/08 08:56:58;;;;;;;12.73;4.95;;;5.10;98.30;;;;;;5055139;28;20037;-76
2021/04/08 08:59:25;;;;;;;14.40;4.57;;;5.50;98.10;;;;;;5055231;28;20048;-75
2021/04/08 09:01:52;;;;;;;9.35;4.35;;;5.70;98.10;;;;;;5053639;28;20032;-75
2021/04/08 09:04:18;;;;;;;18.45;4.93;;;5.20;98.40;;;;;;5055028;28;20070;-76
2021/04/08 09:06:45;;;;;;;10.82;4.53;;;5.40;98.00;;;;;;5053602;28;20033;-77
2021/04/08 09:09:14;;;;;;;14.02;4.55;;;5.40;98.50;;;;;;5054527;28;20444;-77
2021/04/08 09:11:42;;;;;;;10.40;4.88;;;5.20;98.90;;;;;;5037405;28;20045;-76
2021/04/08 09:14:12;;;;;;;14.50;4.25;;;5.20;99.20;;;;;;5054358;28;20036;-76
2021/04/08 09:16:45;;;;;;;16.33;5.20;;;5.40;98.60;;;;;;5037579;28;20355;-75
2021/04/08 09:19:11;;;;;;;10.98;5.72;;;5.30;99.90;;;;;;5054444;28;20029;-77
2021/04/08 09:21:57;;;;;;;14.55;5.35;;;5.40;99.90;;;;;;5053406;28;20036;-77
2021/04/08 09:24:34;;;;;;;12.52;5.03;;;5.40;99.90;;;;;;5036939;28;20032;-75
2021/04/08 09:27:00;;;;;;;11.27;5.88;;;5.80;99.90;;;;;;5054431;28;20131;-76
2021/04/08 09:29:43;;;;;;;13.32;5.35;;;6.20;99.70;;;;;;5054574;28;20033;-77
2021/04/08 09:32:45;;;;;;;11.93;5.22;;;6.30;98.50;;;;;;5054260;28;20568;-77
2021/04/08 09:35:17;;;;;;;12.55;4.97;;;6.00;98.50;;;;;;5054507;28;20029;-77
2021/04/08 09:37:46;;;;;;;10.85;4.50;;;6.00;98.50;;;;;;5037110;28;20033;-75
2021/04/08 09:40:24;;;;;;;12.07;4.75;;;6.20;98.10;;;;;;5054353;28;20037;-77
2021/04/08 09:42:58;;;;;;;11.05;4.82;;;6.30;97.30;;;;;;5054328;28;20036;-77
2021/04/08 09:45:25;;;;;;;8.90;4.53;;;6.40;98.20;;;;;;5053185;28;20025;-78
2021/04/08 09:48:43;;;;;;;11.60;5.05;;;6.70;96.90;;;;;;5057188;28;20051;-77
2021/04/08 09:51:09;;;;;;;12.60;4.35;;;6.90;96.50;;;;;;4992228;28;20477;-77
2021/04/08 09:53:37;;;;;;;10.27;3.80;;;6.40;97.60;;;;;;5048856;28;20044;-77
2021/04/08 09:56:07;;;;;;;8.73;4.22;;;6.40;96.80;;;;;;5053622;28;20482;-77
2021/04/08 09:58:36;;;;;;;13.63;4.60;;;6.50;96.70;;;;;;5036073;28;20120;-76
2021/04/08 10:01:06;;;;;;;7.90;4.35;;;6.20;98.20;;;;;;5053594;28;20036;-73
2021/04/08 10:03:37;;;;;;;9.63;4.50;;;6.30;97.00;;;;;;5053914;28;20029;-75
2021/04/08 10:06:18;;;;;;;11.35;4.50;;;6.50;97.00;;;;;;5054096;28;20501;-74
2021/04/08 10:08:45;;;;;;;10.02;4.65;;;6.10;97.60;;;;;;5037010;28;20048;-76
2021/04/08 10:11:12;;;;;;;10.98;4.40;;;6.20;97.90;;;;;;5033837;28;20029;-73
2021/04/08 10:13:40;;;;;;;7.35;4.38;;;6.30;97.80;;;;;;5043482;28;20552;-74
2021/04/08 10:16:12;;;;;;;13.82;4.80;;;6.40;97.30;;;;;;5050463;28;20111;-78
2021/04/08 10:18:40;;;;;;;7.97;4.15;;;6.40;98.70;;;;;;5053967;28;20098;-81
2021/04/08 10:21:12;;;;;;;14.27;4.93;;;6.40;98.00;;;;;;5053511;28;20117;-78
2021/04/08 10:23:47;;;;;;;7.57;4.00;;;6.70;98.80;;;;;;5053869;28;20025;-76
2021/04/08 10:26:23;;;;;;;12.05;5.18;;;6.90;97.40;;;;;;5053533;28;20045;-78
2021/04/08 10:28:54;;;;;;;14.10;3.95;;;7.20;98.10;;;;;;5053371;28;20061;-78
2021/04/08 10:31:32;;;;;;;7.53;4.05;;;6.90;96.20;;;;;;5053302;28;20532;-78
2021/04/08 10:34:06;;;;;;;7.25;3.55;;;7.40;95.30;;;;;;5053342;28;20072;-79
2021/04/08 10:36:40;;;;;;;10.57;3.70;;;7.40;96.60;;;;;;5052962;28;20025;-78
2021/04/08 10:39:16;;;;;;;12.63;4.47;;;7.70;94.50;;;;;;5053326;28;20041;-77
2021/04/08 10:42:10;;;;;;;6.20;2.80;;;7.80;95.40;;;;;;5053032;28;20060;-76
2021/04/08 10:44:47;;;;;;;10.13;4.95;;;7.60;94.70;;;;;;5051964;28;20091;-75
2021/04/08 10:47:15;;;;;;;6.68;3.00;;;7.70;93.20;;;;;;5052704;28;20541;-78
2021/04/08 10:50:07;;;;;;;9.98;3.13;;;8.00;94.00;;;;;;5052850;28;20532;-78
2021/04/08 10:52:39;;;;;;;11.13;3.25;;;8.30;93.70;;;;;;5052442;28;20045;-81
2021/04/08 10:55:11;;;;;;;7.65;4.15;;;8.70;92.80;;;;;;5053057;28;20028;-82
2021/04/08 10:57:42;;;;;;;10.35;3.10;;;8.80;92.40;;;;;;5052103;28;20032;-75
2021/04/08 11:00:12;;;;;;;5.50;2.83;;;8.80;90.10;;;;;;5068233;28;20114;-78
2021/04/08 11:02:41;;;;;;;8.82;3.10;;;8.40;90.50;;;;;;5053854;28;20091;-78
2021/04/08 11:05:22;;;;;;;6.82;2.83;;;8.10;90.90;;;;;;5053636;28;20401;-78
2021/04/08 11:07:52;;;;;;;6.78;3.25;;;8.20;87.20;;;;;;5035654;28;20057;-77
2021/04/08 11:10:24;;;;;;;11.95;3.33;;;8.40;86.10;;;;;;5052944;28;20041;-78
2021/04/08 11:12:53;;;;;;;8.13;2.70;;;8.80;90.50;;;;;;5053365;28;20088;-77
2021/04/08 11:15:25;;;;;;;7.10;2.47;;;9.10;84.30;;;;;;5053555;28;20025;-78
2021/04/08 11:18:08;;;;;;;6.82;2.45;;;8.60;89.00;;;;;;5052291;28;20059;-78
2021/04/08 11:20:47;;;;;;;8.25;2.10;;;9.40;86.70;;;;;;5068108;28;20167;-79
2021/04/08 11:23:18;;;;;;;7.38;2.65;;;9.50;78.70;;;;;;5053340;28;20426;-78
2021/04/08 11:25:59;;;;;;;5.32;2.95;;;9.00;81.50;;;;;;5053553;28;20029;-79
2021/04/08 11:28:24;;;;;;;10.07;2.70;;;8.70;80.70;;;;;;5066072;28;20033;-78
2021/04/08 11:30:50;;;;;;;8.45;3.15;;;8.80;82.30;;;;;;5059287;28;20036;-78
2021/04/08 11:33:27;;;;;;;6.63;2.80;;;9.20;84.90;;;;;;5058716;28;20041;-78
2021/04/08 11:35:53;;;;;;;6.45;1.63;;;9.30;82.00;;;;;;5042993;28;20043;-79
2021/04/08 11:38:24;;;;;;;10.45;2.50;;;9.00;79.00;;;;;;5042267;28;20036;-78
2021/04/08 11:41:06;;;;;;;5.75;2.05;;;8.90;77.10;;;;;;5040842;28;20083;-76
2021/04/08 11:43:42;;;;;;;5.45;1.85;;;8.70;76.60;;;;;;5042194;28;20029;-79
2021/04/08 11:46:35;;;;;;;6.72;1.98;;;8.90;74.00;;;;;;5041967;28;20482;-77
2021/04/08 11:49:01;;;;;;;9.40;2.40;;;8.70;75.50;;;;;;5042915;28;20602;-77
2021/04/08 11:51:31;;;;;;;6.07;2.10;;;8.60;77.20;;;;;;5065212;28;20367;-77
2021/04/08 11:54:09;;;;;;;8.98;3.10;;;8.10;79.70;;;;;;5051639;28;20036;-78
2021/04/08 11:56:38;;;;;;;11.20;2.75;;;8.10;78.10;;;;;;5053059;28;20067;-79
2021/04/08 11:59:18;;;;;;;7.07;1.92;;;8.20;80.20;;;;;;5035114;28;20029;-78
2021/04/08 12:01:54;;;;;;;11.77;2.75;;;8.90;78.00;;;;;;5052269;28;20056;-78
2021/04/08 12:04:26;;;;;;;9.63;1.95;;;9.30;73.80;;;;;;5052190;28;20048;-80
2021/04/08 12:07:04;;;;;;;4.65;1.92;;;9.80;72.80;;;;;;5044943;28;20068;-79
2021/04/08 12:09:44;;;;;;;4.40;1.70;;;10.20;68.10;;;;;;5041774;28;20405;-78
2021/04/08 12:12:11;;;;;;;4.88;1.70;;;10.60;67.40;;;;;;5056654;28;20031;-78
2021/04/08 12:14:59;;;;;;;5.45;1.75;;;10.80;64.40;;;;;;5047253;28;20040;-78
2021/04/08 12:17:27;;;;;;;5.38;2.17;;;10.20;64.70;;;;;;5042677;28;20060;-79
2021/04/08 12:19:53;;;;;;;4.20;1.73;;;9.90;64.50;;;;;;5043853;28;20043;-79
2021/04/08 12:22:19;;;;;;;7.38;2.47;;;9.60;64.80;;;;;;5046961;28;20545;-79
2021/04/08 12:25:17;;;;;;;11.32;2.13;;;9.70;66.60;;;;;;5044165;28;20025;-76
2021/04/08 12:27:43;;;;;;;14.27;2.10;;;9.60;65.20;;;;;;5024715;28;20490;-78
2021/04/08 12:30:12;;;;;;;5.43;2.35;;;9.30;64.80;;;;;;5041319;28;20029;-77
2021/04/08 12:32:39;;;;;;;5.82;1.88;;;8.60;65.70;;;;;;5040082;28;20030;-77
2021/04/08 12:35:08;;;;;;;6.97;1.88;;;9.00;66.50;;;;;;5034486;28;20034;-61
2021/04/08 12:37:35;;;;;;;5.43;2.00;;;9.90;66.30;;;;;;5031970;28;20030;-68
2021/04/08 12:40:01;;;;;;;8.15;2.08;;;10.70;64.10;;;;;;5030285;28;20042;-73
2021/04/08 12:42:27;;;;;;;3.10;1.50;;;12.20;60.10;;;;;;5047350;28;20057;-78
2021/04/08 12:44:53;;;;;;;5.22;1.73;;;11.60;59.50;;;;;;5032025;28;20095;-79
2021/04/08 12:47:20;;;;;;;5.43;1.92;;;11.80;57.70;;;;;;5031704;28;20033;-79
2021/04/08 12:49:47;;;;;;;4.93;1.80;;;11.60;57.30;;;;;;5031497;28;20026;-80
2021/04/08 12:52:13;;;;;;;9.23;2.53;;;11.20;57.30;;;;;;5031551;28;20044;-78
2021/04/08 12:54:38;;;;;;;6.43;1.85;;;11.70;56.30;;;;;;5032043;28;20029;-78
2021/04/08 12:57:05;;;;;;;3.85;1.60;;;10.90;57.10;;;;;;5050246;28;20082;-79
2021/04/08 12:59:31;;;;;;;5.13;1.95;;;10.60;58.50;;;;;;5035292;28;20033;-79
2021/04/08 13:01:57;;;;;;;3.90;1.85;;;11.10;58.80;;;;;;5050695;28;20040;-77
2021/04/08 13:04:24;;;;;;;7.65;2.40;;;11.80;55.60;;;;;;5035227;28;20033;-78
2021/04/08 13:06:52;;;;;;;5.20;1.60;;;11.30;56.70;;;;;;5035160;28;20046;-79
2021/04/08 13:09:18;;;;;;;5.57;1.45;;;12.30;55.20;;;;;;5034721;28;20513;-78
2021/04/08 13:11:44;;;;;;;5.10;1.67;;;13.10;52.20;;;;;;5035176;28;20044;-78